Time;durP1;ratioP1;P1;durP2;ratioP2;P2;SDS_P1;SDS_P2;PMS_P1;PMS_P2;Temp;Humidity;BMP_temperature;BMP_pressure;BME280_temperature;BME280_humidity;BME280_pressure;Samples;Min_cycle;Max_cycle;Signal;HPM_P1;HPM_P2
2021/03/08 00:05:21;;;;;;;42.5;33.5;;;;;;;-1.23;90.5332;98696.25;;;;
2021/03/08 00:15:19;;;;;;;33.3;27;;;;;;;-1.42;91.5752;98688.66;;;;
2021/03/08 00:25:16;;;;;;;28.1;22.7;;;;;;;-1.56;91.42676;98680.91;;;;
2021/03/08 00:35:14;;;;;;;32.5;25.2;;;;;;;-1.63;92.0752;98682.04;;;;
2021/03/08 00:45:11;;;;;;;33.2;23.8;;;;;;;-1.63;92.17285;98679.4;;;;
2021/03/08 00:55:09;;;;;;;23.5;20;;;;;;;-1.6;91.7207;98678.97;;;;
2021/03/08 01:05:06;;;;;;;32;22;;;;;;;-1.52;91.65234;98674.14;;;;
2021/03/08 01:15:04;;;;;;;30.9;19.9;;;;;;;-1.48;91.19238;98663.92;;;;
2021/03/08 01:25:01;;;;;;;32.4;19.3;;;;;;;-1.44;90.78516;98665.08;;;;
2021/03/08 01:34:59;;;;;;;31;22.3;;;;;;;-1.51;90.79199;98656.45;;;;
2021/03/08 01:44:56;;;;;;;26.3;19.3;;;;;;;-1.5;90.87012;98655.43;;;;
2021/03/08 01:54:54;;;;;;;30.5;20.3;;;;;;;-1.5;90.55273;98652.79;;;;
2021/03/08 02:04:51;;;;;;;27.9;20.2;;;;;;;-1.53;90.67871;98643.45;;;;
2021/03/08 02:14:58;;;;;;;32.5;20.6;;;;;;;-1.54;90.52148;98643.7;;;;
2021/03/08 02:24:51;;;;;;;23;16.6;;;;;;;-1.55;90.4873;98636.8;;;;
2021/03/08 02:34:51;;;;;;;22.8;17.2;;;;;;;-1.54;90.62207;98631.3;;;;
2021/03/08 02:44:47;;;;;;;21;16.5;;;;;;;-1.45;90.66309;98634.39;;;;
2021/03/08 02:54:38;;;;;;;24.2;21.5;;;;;;;-1.25;90.125;98637.5;;;;
2021/03/08 03:04:36;;;;;;;26.8;17.7;;;;;;;-1.05;89.74023;98639.8;;;;
2021/03/08 03:14:33;;;;;;;30.7;16.2;;;;;;;-0.91;89.49512;98629.78;;;;
2021/03/08 03:24:31;;;;;;;26.3;19.1;;;;;;;-0.76;89.09961;98638.02;;;;
2021/03/08 03:34:28;;;;;;;31.4;22.1;;;;;;;-0.71;89.24316;98635.49;;;;
2021/03/08 03:44:26;;;;;;;33.3;22.2;;;;;;;-0.77;90.20508;98615.27;;;;
2021/03/08 03:54:24;;;;;;;25.3;20.3;;;;;;;-0.74;90.41895;98612.96;;;;
2021/03/08 04:04:21;;;;;;;28;18.8;;;;;;;-0.76;91.07031;98616.86;;;;
2021/03/08 04:14:19;;;;;;;26.6;20.2;;;;;;;-0.77;91.05859;98609.98;;;;
2021/03/08 04:24:16;;;;;;;25.8;21.4;;;;;;;-0.7;90.60156;98631.82;;;;
2021/03/08 04:34:14;;;;;;;20.4;16.9;;;;;;;-0.61;89.9873;98635.7;;;;
2021/03/08 04:44:12;;;;;;;24.5;17.6;;;;;;;-0.64;90.13574;98644.92;;;;
2021/03/08 04:54:09;;;;;;;26.5;19.3;;;;;;;-0.63;90.09375;98633.3;;;;
2021/03/08 05:04:07;;;;;;;24.2;16.8;;;;;;;-0.59;90.04785;98639.71;;;;
2021/03/08 05:14:04;;;;;;;25.1;18.7;;;;;;;-0.52;89.75488;98640.38;;;;
2021/03/08 05:24:02;;;;;;;24.9;17.7;;;;;;;-0.45;88.99023;98642.11;;;;
2021/03/08 05:34:00;;;;;;;22.8;17.3;;;;;;;-0.42;89.07422;98657.52;;;;
2021/03/08 05:43:57;;;;;;;23;18.7;;;;;;;-0.37;88.70215;98645.17;;;;
2021/03/08 05:54:28;;;;;;;29.7;19.2;;;;;;;-0.37;88.59277;98655.77;;;;
2021/03/08 06:04:07;;;;;;;24.8;19.8;;;;;;;-0.26;88.99805;98673.47;;;;
2021/03/08 06:13:54;;;;;;;25.6;21.2;;;;;;;-0.29;89.8457;98681.88;;;;
2021/03/08 06:23:48;;;;;;;30.9;21.5;;;;;;;-0.27;90.0918;98700.17;;;;
2021/03/08 06:33:49;;;;;;;34.1;22.6;;;;;;;-0.34;91.6543;98710.89;;;;
2021/03/08 06:43:44;;;;;;;36.1;25.9;;;;;;;-0.34;93.17578;98710.89;;;;
2021/03/08 06:53:41;;;;;;;35.5;29.4;;;;;;;-0.42;94.63574;98726.36;;;;
2021/03/08 07:03:39;;;;;;;33.8;30.2;;;;;;;-0.34;95.23242;98742.67;;;;
2021/03/08 07:13:37;;;;;;;43.7;31.3;;;;;;;-0.27;95.28125;98761.08;;;;
2021/03/08 07:23:35;;;;;;;40.2;29.7;;;;;;;-0.28;95.24707;98768.24;;;;
2021/03/08 07:33:32;;;;;;;38.2;30.4;;;;;;;-0.3;95.75684;98770.3;;;;
2021/03/08 07:43:30;;;;;;;38.9;29;;;;;;;-0.2;96.40234;98781.1;;;;
2021/03/08 07:53:28;;;;;;;32.8;29;;;;;;;-0.01;96.46875;98779.92;;;;
2021/03/08 08:03:26;;;;;;;38.8;30.7;;;;;;;0.04;96.79395;98786.34;;;;
2021/03/08 08:13:24;;;;;;;35.4;27.7;;;;;;;0.15;97.37598;98796.11;;;;
2021/03/08 08:23:21;;;;;;;34.3;29.4;;;;;;;0.05;99.08398;98804.66;;;;
2021/03/08 08:33:19;;;;;;;37.8;32.4;;;;;;;0.16;99.46777;98805.67;;;;
2021/03/08 08:43:17;;;;;;;49.5;35;;;;;;;0.18;99.36426;98820.3;;;;
2021/03/08 08:53:15;;;;;;;41.3;30.7;;;;;;;0.1;99.85938;98833.12;;;;
2021/03/08 09:03:13;;;;;;;45.7;34.4;;;;;;;0.2;100;98846.58;;;;
2021/03/08 09:13:10;;;;;;;41.3;34.7;;;;;;;0.8;97.70215;98845.08;;;;
2021/03/08 09:23:08;;;;;;;49.3;41.2;;;;;;;1.2;96.60645;98844.18;;;;
2021/03/08 09:33:06;;;;;;;45.8;31.6;;;;;;;1.56;92.0166;98856.18;;;;
2021/03/08 09:43:04;;;;;;;31.6;28.1;;;;;;;2.05;88.66309;98867.79;;;;
2021/03/08 09:53:02;;;;;;;33;23.9;;;;;;;2.35;87.07129;98876.97;;;;
2021/03/08 10:03:00;;;;;;;37;19.5;;;;;;;2.85;81.79883;98874.06;;;;
2021/03/08 10:13:00;;;;;;;22;19.5;;;;;;;2.49;83.12402;98886.19;;;;
2021/03/08 10:22:56;;;;;;;24.8;19.6;;;;;;;2.2;84.98926;98898.03;;;;
2021/03/08 10:32:54;;;;;;;27.5;20.1;;;;;;;1.99;85.25586;98907.58;;;;
2021/03/08 10:42:52;;;;;;;18.7;16.7;;;;;;;1.8;86.71777;98911.55;;;;
2021/03/08 10:53:05;;;;;;;28.3;24.3;;;;;;;1.49;90.32031;98917.43;;;;
2021/03/08 11:02:49;;;;;;;29.3;23;;;;;;;2.48;88.33398;98903.19;;;;
2021/03/08 11:12:54;;;;;;;30.9;24.7;;;;;;;2.92;88.41309;98906.62;;;;
2021/03/08 11:22:44;;;;;;;27.9;22.9;;;;;;;2.96;84.50977;98905.07;;;;
2021/03/08 11:32:42;;;;;;;30.9;23.9;;;;;;;3.3;87.87109;98907.52;;;;
2021/03/08 11:42:40;;;;;;;24.4;21.8;;;;;;;3.45;83.64063;98907.67;;;;
2021/03/08 11:52:38;;;;;;;29.2;19.9;;;;;;;2.94;80.16699;98915.17;;;;
2021/03/08 12:02:36;;;;;;;24.8;19.2;;;;;;;2.34;83.28027;98922.41;;;;
2021/03/08 12:12:34;;;;;;;25.3;19.1;;;;;;;1.61;87.22754;98917.33;;;;
2021/03/08 12:22:32;;;;;;;21.5;17.3;;;;;;;2.37;85.61719;98911.27;;;;
2021/03/08 12:32:30;;;;;;;18.9;16.5;;;;;;;2.75;84.30176;98913.88;;;;
2021/03/08 12:42:28;;;;;;;19.2;13.9;;;;;;;2.85;77.95703;98929.96;;;;
2021/03/08 12:52:26;;;;;;;18.1;12.2;;;;;;;3.28;75.16211;98928.29;;;;
2021/03/08 13:02:25;;;;;;;14.9;11.7;;;;;;;2.98;73.53516;98934.92;;;;
2021/03/08 13:12:23;;;;;;;13.5;9.7;;;;;;;3.03;70.96875;98945.61;;;;
2021/03/08 13:22:21;;;;;;;7.6;3.1;;;;;;;2.58;61.10449;98947.73;;;;
2021/03/08 13:32:19;;;;;;;6.5;4.8;;;;;;;2.6;63.14355;98945.64;;;;
2021/03/08 13:42:16;;;;;;;7.6;3.6;;;;;;;2.93;64.77148;98960.66;;;;
2021/03/08 13:52:14;;;;;;;7.1;4.5;;;;;;;2.99;56.39355;98954.34;;;;
2021/03/08 14:02:12;;;;;;;6.4;4.3;;;;;;;3.6;59.59961;98955.78;;;;
2021/03/08 14:12:10;;;;;;;9.9;5.3;;;;;;;3.78;55.66992;98950.08;;;;
2021/03/08 14:22:08;;;;;;;5.7;4.3;;;;;;;3.13;54.15625;98954.75;;;;
2021/03/08 14:32:07;;;;;;;10.9;6.9;;;;;;;2.67;54.48926;98956.91;;;;
2021/03/08 14:42:04;;;;;;;4.8;2.4;;;;;;;2.39;54.44336;98957.88;;;;
2021/03/08 14:52:02;;;;;;;6.1;3.4;;;;;;;1.93;56.53223;98968.88;;;;
2021/03/08 15:02:00;;;;;;;6.2;3.4;;;;;;;1.72;55.0127;98972.25;;;;
2021/03/08 15:11:58;;;;;;;10.3;6.9;;;;;;;1.71;55.97949;98986.56;;;;
2021/03/08 15:21:56;;;;;;;8.2;4.6;;;;;;;1.6;56.81055;98992.78;;;;
2021/03/08 15:31:53;;;;;;;7.7;3;;;;;;;1.47;58.08105;98996.52;;;;
2021/03/08 15:41:51;;;;;;;11.2;9.1;;;;;;;1.15;59.19141;99011.3;;;;
2021/03/08 15:51:49;;;;;;;6.1;2.3;;;;;;;0.84;59.78125;99020.5;;;;
2021/03/08 16:01:49;;;;;;;5.4;2.6;;;;;;;0.31;61.51172;99020.69;;;;
2021/03/08 16:11:44;;;;;;;5.5;3;;;;;;;0.07;62.36035;99037.61;;;;
2021/03/08 16:21:42;;;;;;;8.5;4.7;;;;;;;-0.16;63.13379;99036.52;;;;
2021/03/08 16:31:39;;;;;;;13.1;7.2;;;;;;;-0.41;65.06152;99043.81;;;;
2021/03/08 16:41:37;;;;;;;19.7;13;;;;;;;-0.63;65.94434;99054.12;;;;
2021/03/08 16:51:34;;;;;;;23.1;13.4;;;;;;;-0.8;68.00098;99071.61;;;;
2021/03/08 17:01:32;;;;;;;28.9;17.8;;;;;;;-1.09;68.6582;99080.31;;;;
2021/03/08 17:11:29;;;;;;;27.1;18.9;;;;;;;-1.37;68.87598;99090.56;;;;
2021/03/08 17:21:27;;;;;;;18.1;14.3;;;;;;;-1.78;70.77539;99109.63;;;;
2021/03/08 17:31:24;;;;;;;40.9;18.9;;;;;;;-2.12;72.2998;99114.31;;;;
2021/03/08 17:41:21;;;;;;;19.5;16.2;;;;;;;-2.34;72.875;99122.78;;;;
2021/03/08 17:51:19;;;;;;;21;16;;;;;;;-2.55;74.43848;99137.09;;;;
2021/03/08 18:01:16;;;;;;;30.4;22.1;;;;;;;-2.75;76.34961;99131.91;;;;
2021/03/08 18:11:13;;;;;;;25.7;16.2;;;;;;;-3.05;76.48242;99128.94;;;;
2021/03/08 18:21:10;;;;;;;29.7;19.5;;;;;;;-3.24;78.03223;99137.71;;;;
2021/03/08 18:31:07;;;;;;;29.2;20.5;;;;;;;-3.26;78.91211;99141.55;;;;
2021/03/08 18:41:05;;;;;;;21.4;17.7;;;;;;;-3.32;77.55859;99153.73;;;;
2021/03/08 18:51:02;;;;;;;15.7;10.4;;;;;;;-3.45;78.00391;99159.02;;;;
2021/03/08 19:00:59;;;;;;;19.4;11.6;;;;;;;-3.5;78.44238;99164.06;;;;
2021/03/08 19:10:56;;;;;;;15.9;11.7;;;;;;;-3.46;79.40918;99170.56;;;;
2021/03/08 19:20:53;;;;;;;23.1;14.1;;;;;;;-3.34;80.0752;99170.77;;;;
2021/03/08 19:30:50;;;;;;;38.6;25.8;;;;;;;-3.25;79.97168;99172.98;;;;
2021/03/08 19:40:50;;;;;;;30;20.7;;;;;;;-3.12;80.47754;99180.87;;;;
2021/03/08 19:50:44;;;;;;;40.8;27.8;;;;;;;-3.14;83.83398;99190.81;;;;
2021/03/08 20:00:42;;;;;;;39.2;24.4;;;;;;;-3.15;82.10938;99183.91;;;;
2021/03/08 20:10:39;;;;;;;26.9;18.4;;;;;;;-3.2;81.11523;99188.19;;;;
2021/03/08 20:20:36;;;;;;;29.2;19;;;;;;;-3.32;80.17676;99181.9;;;;
2021/03/08 20:30:33;;;;;;;24.3;21.1;;;;;;;-3.53;80.69238;99179.47;;;;
2021/03/08 20:40:30;;;;;;;26.8;18.3;;;;;;;-3.85;81.96094;99184.5;;;;
2021/03/08 20:50:27;;;;;;;28.6;20.9;;;;;;;-4.13;81.99512;99189.13;;;;
2021/03/08 21:00:24;;;;;;;38.4;22;;;;;;;-4.29;82.35547;99181.56;;;;
2021/03/08 21:10:21;;;;;;;40.5;25.1;;;;;;;-4.39;83.21484;99181.13;;;;
2021/03/08 21:20:18;;;;;;;39.7;28;;;;;;;-4.32;85.58984;99185.41;;;;
2021/03/08 21:30:15;;;;;;;50.6;30.5;;;;;;;-4.2;85.53711;99183.03;;;;
2021/03/08 21:40:12;;;;;;;43.5;25.2;;;;;;;-3.98;86.06934;99181.03;;;;
2021/03/08 21:50:09;;;;;;;36.9;25.9;;;;;;;-3.95;85.39063;99183.27;;;;
2021/03/08 22:00:07;;;;;;;56.8;30.8;;;;;;;-4.03;85.27734;99181.66;;;;
2021/03/08 22:10:04;;;;;;;28.9;23.6;;;;;;;-4.09;86.60254;99182.43;;;;
2021/03/08 22:20:01;;;;;;;50.6;31.5;;;;;;;-4.09;87.27637;99171.9;;;;
2021/03/08 22:29:58;;;;;;;41.4;30.1;;;;;;;-4.17;87.27246;99175.55;;;;
2021/03/08 22:39:55;;;;;;;51.4;31.3;;;;;;;-4.24;89.36426;99179.98;;;;
2021/03/08 22:49:52;;;;;;;32.8;24.1;;;;;;;-4.28;88.68164;99167.41;;;;
2021/03/08 22:59:50;;;;;;;43.5;32.4;;;;;;;-4.52;88.60938;99170.56;;;;
2021/03/08 23:09:46;;;;;;;34.4;24.5;;;;;;;-4.8;88.97461;99160.94;;;;
2021/03/08 23:19:43;;;;;;;35;19.5;;;;;;;-5.06;89.07129;99168.66;;;;
2021/03/08 23:29:40;;;;;;;44.8;28.3;;;;;;;-5.27;90.09766;99171.36;;;;
2021/03/08 23:39:36;;;;;;;40.7;32.2;;;;;;;-5.4;91.47852;99177.34;;;;
2021/03/08 23:49:33;;;;;;;40.1;25.9;;;;;;;-5.48;92.17285;99176.68;;;;
2021/03/08 23:59:30;;;;;;;38.1;24.6;;;;;;;-5.65;93.38086;99191.87;;;;
